createdAt,value
2022-12-27T00:06:14.422Z,8.57
2022-12-27T00:11:40.610Z,7.87
2022-12-27T00:17:03.712Z,7.97
2022-12-27T00:22:32.686Z,8.48
2022-12-27T00:28:00.041Z,8.10
2022-12-27T00:33:24.508Z,8.32
2022-12-27T00:38:52.217Z,8.93
2022-12-27T00:44:16.582Z,8.55
2022-12-27T00:49:41.673Z,7.60
2022-12-27T00:55:05.397Z,8.27
2022-12-27T01:00:30.550Z,8.73
2022-12-27T01:05:54.270Z,8.85
2022-12-27T01:11:19.422Z,6.80
2022-12-27T01:16:44.958Z,8.38
2022-12-27T01:22:08.447Z,8.10
2022-12-27T01:27:37.348Z,7.25
2022-12-27T01:33:07.992Z,8.68
2022-12-27T01:38:34.785Z,8.25
2022-12-27T01:44:18.656Z,7.13
2022-12-27T01:50:08.576Z,8.07
2022-12-27T01:55:42.945Z,9.23
2022-12-27T02:01:14.286Z,12.05
2022-12-27T02:06:44.204Z,11.63
2022-12-27T02:12:10.376Z,12.10
2022-12-27T02:17:35.552Z,13.63
2022-12-27T02:23:57.803Z,13.07
2022-12-27T02:29:47.236Z,11.82
2022-12-27T02:35:21.806Z,12.18
2022-12-27T02:41:12.080Z,13.48
2022-12-27T02:46:55.040Z,14.13
2022-12-27T02:52:58.145Z,14.10
2022-12-27T02:58:37.855Z,14.40
2022-12-27T03:04:23.253Z,13.63
2022-12-27T03:10:33.466Z,15.75
2022-12-27T03:16:13.660Z,14.15
2022-12-27T03:22:04.908Z,15.63
2022-12-27T03:27:36.819Z,15.45
2022-12-27T03:33:15.477Z,14.20
2022-12-27T03:38:55.632Z,15.25
2022-12-27T03:44:25.304Z,12.70
2022-12-27T03:50:04.292Z,14.25
2022-12-27T03:55:34.028Z,13.20
2022-12-27T04:01:00.705Z,11.75
2022-12-27T04:06:24.464Z,11.23
2022-12-27T04:12:12.593Z,10.93
2022-12-27T04:17:59.223Z,9.68
2022-12-27T04:23:46.130Z,9.48
2022-12-27T04:29:28.079Z,7.95
2022-12-27T04:34:52.037Z,7.85
2022-12-27T04:40:30.157Z,7.47
2022-12-27T04:46:12.393Z,6.88
2022-12-27T04:52:05.270Z,6.63
2022-12-27T04:57:29.559Z,6.03
2022-12-27T05:02:54.843Z,7.85
2022-12-27T05:08:38.035Z,7.50
2022-12-27T05:14:01.613Z,7.80
2022-12-27T08:35:50.847Z,10.52
2022-12-27T08:41:04.802Z,9.95
2022-12-27T08:46:42.342Z,7.93
2022-12-27T08:52:12.697Z,10.70
2022-12-27T08:57:38.973Z,14.85
2022-12-27T09:03:08.348Z,15.70
2022-12-27T09:08:40.183Z,15.07
2022-12-27T09:14:04.827Z,11.65
2022-12-27T09:19:32.528Z,10.33
2022-12-27T09:25:01.476Z,11.10
2022-12-27T09:30:30.831Z,12.25
2022-12-27T09:35:53.649Z,10.48
2022-12-27T09:42:12.182Z,12.35
2022-12-27T09:47:44.797Z,8.68
2022-12-27T09:53:17.782Z,7.75
2022-12-27T09:58:49.246Z,8.90
2022-12-27T10:04:20.248Z,8.95
2022-12-27T10:09:58.187Z,7.40
2022-12-27T10:15:36.612Z,8.55
2022-12-27T10:21:22.596Z,8.15
2022-12-27T10:26:54.098Z,7.40
2022-12-27T10:32:24.774Z,7.05
2022-12-27T10:37:54.691Z,6.80
2022-12-27T10:43:29.204Z,7.38
2022-12-27T10:54:54.241Z,6.82
2022-12-27T11:00:25.177Z,7.78
2022-12-27T11:06:03.164Z,7.90
2022-12-27T11:11:34.896Z,9.02
2022-12-27T11:17:03.962Z,8.85
2022-12-27T11:22:34.640Z,9.48
2022-12-27T11:28:06.453Z,7.63
2022-12-27T11:33:42.060Z,9.32
2022-12-27T11:39:41.081Z,9.63
2022-12-27T11:45:15.210Z,8.27
2022-12-27T11:50:58.449Z,9.88
2022-12-27T11:56:30.634Z,9.50
2022-12-27T12:02:28.644Z,10.07
2022-12-27T12:08:35.843Z,10.23
2022-12-27T12:14:41.779Z,9.88
2022-12-27T12:20:37.188Z,10.00
2022-12-27T12:26:19.207Z,11.45
2022-12-27T12:32:07.411Z,10.00
2022-12-27T12:37:59.494Z,11.55
2022-12-27T12:43:47.342Z,11.48
2022-12-27T12:49:35.764Z,10.77
2022-12-27T12:55:22.950Z,10.90
2022-12-27T13:01:05.795Z,11.05
2022-12-27T13:07:11.130Z,11.93
2022-12-27T13:12:52.388Z,12.98
2022-12-27T13:18:38.823Z,13.48
2022-12-27T13:24:26.206Z,11.38
2022-12-27T17:39:07.139Z,22.10
2022-12-27T17:44:50.280Z,22.05
2022-12-27T17:50:18.727Z,17.95
2022-12-27T17:56:33.598Z,16.75
2022-12-27T18:02:07.992Z,16.15
2022-12-27T18:07:36.696Z,17.70
2022-12-27T18:13:08.925Z,18.38
2022-12-27T18:18:38.276Z,18.30
2022-12-27T18:24:02.644Z,19.17
2022-12-27T18:29:33.515Z,17.48
2022-12-27T18:35:04.426Z,16.98
2022-12-27T18:40:35.722Z,18.55
2022-12-27T18:46:06.197Z,18.17
2022-12-27T18:51:38.646Z,19.35
2022-12-27T18:57:25.761Z,17.77
2022-12-27T19:02:52.836Z,17.75
2022-12-27T19:08:20.154Z,17.02
2022-12-27T19:13:51.785Z,17.85
2022-12-27T19:19:21.984Z,22.38
2022-12-27T19:30:39.542Z,31.35
2022-12-27T19:36:11.535Z,22.80
2022-12-27T19:41:38.475Z,22.02
2022-12-27T19:47:02.317Z,24.15
2022-12-27T19:52:28.981Z,25.58
2022-12-27T19:57:52.474Z,30.38
2022-12-27T20:03:21.458Z,23.98
2022-12-27T20:08:49.691Z,20.95
2022-12-27T20:14:18.032Z,21.83
2022-12-27T20:19:47.538Z,20.88
2022-12-27T20:25:17.824Z,20.38
2022-12-27T20:30:48.112Z,20.92
2022-12-27T20:36:11.281Z,22.33
2022-12-27T20:41:39.182Z,20.65
2022-12-27T20:47:08.547Z,19.77
2022-12-27T20:52:38.583Z,19.13
2022-12-27T20:58:08.562Z,19.23
2022-12-27T21:03:38.052Z,19.85
2022-12-27T21:09:08.420Z,18.38
2022-12-27T21:14:33.951Z,16.95
2022-12-27T21:20:03.406Z,16.85
2022-12-27T21:25:33.572Z,17.47
2022-12-27T21:31:00.662Z,17.75
2022-12-27T21:36:26.962Z,15.63
2022-12-27T21:41:53.482Z,17.50
2022-12-27T21:47:23.996Z,16.70
2022-12-27T21:52:47.772Z,19.88
2022-12-27T21:58:16.489Z,18.53
2022-12-27T22:03:44.235Z,15.35
2022-12-27T22:09:13.434Z,15.65
2022-12-27T22:14:42.835Z,16.13
2022-12-27T22:20:14.189Z,15.20
2022-12-27T22:25:42.242Z,16.65
2022-12-27T22:31:13.073Z,17.30
2022-12-27T22:36:37.792Z,16.52
2022-12-27T22:42:06.659Z,15.18
2022-12-27T22:47:31.417Z,14.20
2022-12-27T22:52:57.554Z,11.88
2022-12-27T22:58:30.326Z,11.20
2022-12-27T23:03:54.197Z,8.57
2022-12-27T23:09:18.672Z,10.00
2022-12-27T23:14:42.123Z,7.03
2022-12-27T23:20:12.318Z,6.13
2022-12-27T23:25:43.013Z,3.65
2022-12-27T23:31:13.372Z,3.05
2022-12-27T23:36:35.994Z,2.85
2022-12-27T23:42:02.671Z,2.22
2022-12-27T23:47:27.205Z,4.70
2022-12-27T23:52:56.589Z,4.70
2022-12-27T23:58:27.761Z,5.78
